createdAt,value
2023-05-19T00:01:29.542Z,9.60
2023-05-19T00:03:59.061Z,7.57
2023-05-19T00:06:29.312Z,9.60
2023-05-19T00:09:07.748Z,11.13
2023-05-19T00:11:38.840Z,10.50
2023-05-19T00:14:10.271Z,9.27
2023-05-19T00:16:38.162Z,9.80
2023-05-19T00:19:06.782Z,9.48
2023-05-19T00:21:36.400Z,11.02
2023-05-19T00:24:03.654Z,9.77
2023-05-19T00:26:30.702Z,12.32
2023-05-19T00:28:57.491Z,10.57
2023-05-19T00:31:25.025Z,12.20
2023-05-19T00:33:52.358Z,8.90
2023-05-19T00:36:19.148Z,10.48
2023-05-19T00:38:45.968Z,6.30
2023-05-19T00:41:12.952Z,10.48
2023-05-19T00:43:39.803Z,7.68
2023-05-19T00:46:07.558Z,6.88
2023-05-19T00:48:34.498Z,6.93
2023-05-19T00:51:04.502Z,9.13
2023-05-19T00:53:33.508Z,8.95
2023-05-19T00:56:01.001Z,12.27
2023-05-19T00:58:30.372Z,9.40
2023-05-19T01:01:05.166Z,7.85
2023-05-19T01:03:35.198Z,11.15
2023-05-19T01:06:07.364Z,9.65
2023-05-19T01:08:36.362Z,8.52
2023-05-19T01:11:04.663Z,12.80
2023-05-19T01:13:32.872Z,7.32
2023-05-19T01:16:14.013Z,9.38
2023-05-19T01:19:05.787Z,11.48
2023-05-19T01:22:14.956Z,10.07
2023-05-19T01:24:56.716Z,7.97
2023-05-19T01:27:42.115Z,7.38
2023-05-19T01:30:26.805Z,12.35
2023-05-19T01:32:57.294Z,10.77
2023-05-19T01:35:26.264Z,8.07
2023-05-19T01:37:58.713Z,10.32
2023-05-19T01:40:28.467Z,7.45
2023-05-19T01:42:58.331Z,10.73
2023-05-19T01:45:26.589Z,14.55
2023-05-19T01:47:59.965Z,6.68
2023-05-19T01:50:27.728Z,7.57
2023-05-19T01:52:55.355Z,13.70
2023-05-19T01:55:25.737Z,7.07
2023-05-19T01:58:14.259Z,10.13
2023-05-19T02:01:07.069Z,5.82
2023-05-19T02:03:52.719Z,7.63
2023-05-19T02:06:55.434Z,8.77
2023-05-19T02:10:03.869Z,7.82
2023-05-19T02:12:40.195Z,6.70
2023-05-19T02:15:10.680Z,8.02
2023-05-19T02:17:47.707Z,8.65
2023-05-19T02:20:16.328Z,8.80
2023-05-19T02:22:43.689Z,8.02
2023-05-19T02:25:11.443Z,9.60
2023-05-19T02:27:38.948Z,5.35
2023-05-19T02:30:08.257Z,7.97
2023-05-19T02:32:36.569Z,9.32
2023-05-19T02:35:04.058Z,6.97
2023-05-19T02:37:31.265Z,8.05
2023-05-19T02:39:58.334Z,7.28
2023-05-19T02:42:25.359Z,8.07
2023-05-19T02:44:54.209Z,9.23
2023-05-19T02:47:21.172Z,8.13
2023-05-19T02:49:48.074Z,9.57
2023-05-19T02:52:14.897Z,8.07
2023-05-19T02:54:41.786Z,9.65
2023-05-19T02:57:08.593Z,8.45
2023-05-19T02:59:35.650Z,6.07
2023-05-19T03:02:02.982Z,7.30
2023-05-19T03:04:30.244Z,9.00
2023-05-19T03:07:00.349Z,12.20
2023-05-19T03:09:27.191Z,6.85
2023-05-19T03:11:54.085Z,9.88
2023-05-19T03:14:24.061Z,10.35
2023-05-19T03:16:51.386Z,7.75
2023-05-19T03:19:18.585Z,9.23
2023-05-19T03:21:45.653Z,15.25
2023-05-19T03:24:12.434Z,16.10
2023-05-19T03:26:39.409Z,7.88
2023-05-19T03:29:06.438Z,9.88
2023-05-19T03:31:33.262Z,8.90
2023-05-19T03:34:00.144Z,11.13
2023-05-19T03:36:32.256Z,8.93
2023-05-19T03:38:59.521Z,8.55
2023-05-19T03:41:26.423Z,7.75
2023-05-19T03:43:53.262Z,9.80
2023-05-19T03:46:20.051Z,10.18
2023-05-19T03:48:46.904Z,10.70
2023-05-19T03:51:13.783Z,8.10
2023-05-19T03:53:42.071Z,7.85
2023-05-19T03:56:11.689Z,7.78
2023-05-19T03:58:40.782Z,14.25
2023-05-19T04:01:10.794Z,8.10
2023-05-19T04:03:37.708Z,11.80
2023-05-19T04:06:04.686Z,10.57
2023-05-19T04:08:32.256Z,7.90
2023-05-19T04:10:59.146Z,10.73
2023-05-19T04:13:26.231Z,8.43
2023-05-19T04:15:53.493Z,9.50
2023-05-19T04:18:20.670Z,12.20
2023-05-19T04:20:47.862Z,13.23
2023-05-19T04:23:14.678Z,11.60
2023-05-19T04:25:42.223Z,6.72
2023-05-19T04:28:09.221Z,11.68
2023-05-19T04:30:37.020Z,9.40
2023-05-19T04:33:04.859Z,11.35
2023-05-19T04:35:31.927Z,10.35
2023-05-19T04:37:58.737Z,8.52
2023-05-19T04:40:25.637Z,10.50
2023-05-19T04:42:52.706Z,12.00
2023-05-19T04:45:20.209Z,7.60
2023-05-19T04:47:48.302Z,11.82
2023-05-19T04:50:16.437Z,8.55
2023-05-19T04:52:45.627Z,10.10
2023-05-19T04:55:13.424Z,8.55
2023-05-19T04:57:40.519Z,9.55
2023-05-19T05:00:10.370Z,10.05
2023-05-19T05:02:37.291Z,9.00
2023-05-19T05:05:04.561Z,8.60
2023-05-19T05:07:32.542Z,10.10
2023-05-19T05:09:59.755Z,10.95
2023-05-19T05:12:27.515Z,13.05
2023-05-19T05:14:54.671Z,11.40
2023-05-19T05:17:21.747Z,12.50
2023-05-19T05:19:48.924Z,9.65
2023-05-19T05:22:20.371Z,11.10
2023-05-19T05:24:47.507Z,8.02
2023-05-19T05:27:14.596Z,11.35
2023-05-19T05:29:41.455Z,12.10
2023-05-19T05:32:08.632Z,9.68
2023-05-19T05:34:37.648Z,11.43
2023-05-19T05:37:04.613Z,8.27
2023-05-19T05:39:31.927Z,9.77
2023-05-19T05:41:58.781Z,17.10
2023-05-19T05:44:27.615Z,21.95
2023-05-19T05:46:54.634Z,10.57
2023-05-19T05:49:21.764Z,17.67
2023-05-19T05:52:04.368Z,13.23
2023-05-19T05:54:33.334Z,8.52
2023-05-19T05:57:09.793Z,12.27
2023-05-19T05:59:39.674Z,10.20
2023-05-19T06:02:07.599Z,8.77
2023-05-19T06:04:34.563Z,14.52
2023-05-19T06:07:02.059Z,11.82
2023-05-19T06:09:30.457Z,7.93
2023-05-19T06:11:59.907Z,12.02
2023-05-19T06:14:27.373Z,8.20
2023-05-19T06:16:54.328Z,9.88
2023-05-19T06:19:21.712Z,10.63
2023-05-19T06:21:48.638Z,13.07
2023-05-19T06:24:15.481Z,12.73
2023-05-19T06:26:42.380Z,11.43
2023-05-19T06:29:09.289Z,14.60
2023-05-19T06:31:36.298Z,12.35
2023-05-19T06:34:03.394Z,11.75
2023-05-19T06:36:30.552Z,7.88
2023-05-19T06:38:57.716Z,10.98
2023-05-19T06:41:28.285Z,11.63
2023-05-19T06:44:00.236Z,8.90
2023-05-19T06:46:27.108Z,10.05
2023-05-19T06:48:53.940Z,10.98
2023-05-19T06:51:22.379Z,10.23
2023-05-19T06:53:49.592Z,7.78
2023-05-19T06:56:16.572Z,9.93
2023-05-19T06:58:43.743Z,10.43
2023-05-19T07:01:10.620Z,9.65
2023-05-19T07:03:37.874Z,12.52
2023-05-19T07:06:07.877Z,11.85
2023-05-19T07:08:37.472Z,11.73
2023-05-19T07:11:04.804Z,11.07
2023-05-19T07:13:33.144Z,9.50
2023-05-19T07:16:00.251Z,12.50
2023-05-19T07:18:27.168Z,12.07
2023-05-19T07:20:54.036Z,10.57
2023-05-19T07:23:21.179Z,12.07
2023-05-19T07:25:48.434Z,9.15
2023-05-19T07:28:15.886Z,10.88
2023-05-19T07:30:43.178Z,13.50
2023-05-19T07:33:12.629Z,9.40
2023-05-19T07:35:40.036Z,7.65
2023-05-19T07:38:07.562Z,12.38
2023-05-19T07:40:34.633Z,8.48
2023-05-19T07:43:01.602Z,11.23
2023-05-19T07:45:28.544Z,11.07
2023-05-19T07:47:55.527Z,9.40
2023-05-19T07:50:22.468Z,9.55
2023-05-19T07:52:49.431Z,9.27
2023-05-19T07:55:18.070Z,12.77
2023-05-19T07:57:45.252Z,11.23
2023-05-19T08:00:12.754Z,11.98
2023-05-19T08:02:40.257Z,11.60
2023-05-19T08:05:09.942Z,10.50
2023-05-19T08:07:37.435Z,11.80
2023-05-19T08:10:04.774Z,11.68
2023-05-19T08:12:32.597Z,8.82
2023-05-19T08:15:01.412Z,15.20
2023-05-19T08:17:29.106Z,12.57
2023-05-19T08:19:56.226Z,10.88
2023-05-19T08:22:23.379Z,14.05
2023-05-19T08:24:51.825Z,8.23
2023-05-19T08:27:19.163Z,8.70
2023-05-19T08:29:46.264Z,8.70
2023-05-19T08:32:13.564Z,11.13
2023-05-19T08:34:41.524Z,12.90
2023-05-19T08:37:11.305Z,9.02
2023-05-19T08:39:38.118Z,8.35
2023-05-19T08:42:05.674Z,10.05
2023-05-19T08:44:32.922Z,11.43
2023-05-19T08:47:12.833Z,8.10
2023-05-19T08:49:53.280Z,10.55
2023-05-19T08:52:34.764Z,8.98
2023-05-19T08:55:09.600Z,9.02
2023-05-19T08:57:38.601Z,13.10
2023-05-19T09:00:11.976Z,9.63
2023-05-19T09:02:50.428Z,7.88
2023-05-19T09:05:27.420Z,10.07
2023-05-19T09:07:55.345Z,9.65
2023-05-19T09:10:22.579Z,7.93
2023-05-19T09:12:50.435Z,6.03
2023-05-19T09:15:19.440Z,11.05
2023-05-19T09:17:48.119Z,7.65
2023-05-19T09:20:17.535Z,10.57
2023-05-19T09:22:47.595Z,9.35
2023-05-19T09:25:22.435Z,10.20
2023-05-19T09:27:50.007Z,10.45
2023-05-19T09:30:20.349Z,8.07
2023-05-19T09:32:50.431Z,10.10
2023-05-19T09:35:20.057Z,10.02
2023-05-19T09:37:46.997Z,10.05
2023-05-19T09:40:15.765Z,9.70
2023-05-19T09:42:44.044Z,9.98
2023-05-19T09:45:11.514Z,8.95
2023-05-19T09:47:39.783Z,5.88
2023-05-19T09:50:10.016Z,7.65
2023-05-19T09:52:43.740Z,10.57
2023-05-19T09:55:13.550Z,6.18
2023-05-19T09:57:41.561Z,7.45
2023-05-19T10:00:17.136Z,8.80
2023-05-19T10:02:47.217Z,5.28
2023-05-19T10:05:20.473Z,8.43
2023-05-19T10:07:54.684Z,6.20
2023-05-19T10:10:25.151Z,5.93
2023-05-19T10:12:54.308Z,3.78
2023-05-19T10:15:23.122Z,4.95
2023-05-19T10:17:50.747Z,5.28
2023-05-19T10:20:17.976Z,8.38
2023-05-19T10:22:46.270Z,6.95
2023-05-19T10:25:15.241Z,4.72
2023-05-19T10:28:07.894Z,7.90
2023-05-19T10:30:42.234Z,6.45
2023-05-19T10:33:15.376Z,5.43
2023-05-19T10:36:15.910Z,4.72
2023-05-19T10:38:52.379Z,7.82
2023-05-19T10:41:22.539Z,5.65
2023-05-19T10:44:23.377Z,6.68
2023-05-19T10:46:50.936Z,6.35
2023-05-19T10:49:24.906Z,3.55
2023-05-19T10:51:58.371Z,7.63
2023-05-19T10:54:46.956Z,4.07
2023-05-19T10:57:17.900Z,5.07
2023-05-19T10:59:45.450Z,7.40
2023-05-19T11:02:42.702Z,5.35
2023-05-19T11:05:18.435Z,6.78
2023-05-19T11:07:56.753Z,5.45
2023-05-19T11:10:25.104Z,5.10
2023-05-19T11:12:52.568Z,4.97
2023-05-19T11:15:26.052Z,7.45
2023-05-19T11:17:54.022Z,3.65
2023-05-19T11:20:26.127Z,3.38
2023-05-19T11:23:06.720Z,5.88
2023-05-19T11:26:02.892Z,6.78
2023-05-19T11:28:30.566Z,4.93
2023-05-19T11:31:00.033Z,4.18
2023-05-19T11:33:27.682Z,4.47
2023-05-19T11:36:00.049Z,5.78
2023-05-19T11:38:30.188Z,6.28
2023-05-19T11:40:57.570Z,4.22
2023-05-19T11:43:25.706Z,4.35
2023-05-19T11:45:54.981Z,4.57
2023-05-19T11:48:22.596Z,5.35
2023-05-19T11:50:50.349Z,5.22
2023-05-19T11:53:19.954Z,3.70
2023-05-19T11:55:48.996Z,4.80
2023-05-19T11:58:16.841Z,5.95
2023-05-19T12:00:46.320Z,4.50
2023-05-19T12:03:13.970Z,4.25
2023-05-19T12:05:46.037Z,5.95
2023-05-19T12:08:14.301Z,2.63
2023-05-19T12:10:41.744Z,4.05
2023-05-19T12:13:11.624Z,3.58
2023-05-19T12:15:39.515Z,4.35
2023-05-19T12:18:06.736Z,4.70
2023-05-19T12:20:36.290Z,3.90
2023-05-19T12:23:04.012Z,4.93
2023-05-19T12:25:31.731Z,4.82
2023-05-19T12:28:04.029Z,5.15
2023-05-19T12:30:35.660Z,5.20
2023-05-19T12:33:03.331Z,4.18
2023-05-19T12:35:38.909Z,4.43
2023-05-19T12:38:10.205Z,2.63
2023-05-19T12:40:38.626Z,3.05
2023-05-19T12:43:06.917Z,5.43
2023-05-19T12:45:37.491Z,5.45
2023-05-19T12:48:11.626Z,2.65
2023-05-19T12:50:39.058Z,4.85
2023-05-19T12:53:09.192Z,3.65
2023-05-19T12:55:44.046Z,5.53
2023-05-19T12:58:19.101Z,3.70
2023-05-19T13:03:19.957Z,6.75
2023-05-19T13:05:49.143Z,4.32
2023-05-19T13:08:17.367Z,4.50
2023-05-19T13:10:46.154Z,5.28
2023-05-19T13:13:14.216Z,5.07
2023-05-19T13:15:43.913Z,4.10
2023-05-19T13:18:12.944Z,6.72
2023-05-19T13:20:41.849Z,3.90
2023-05-19T13:23:11.384Z,6.53
2023-05-19T13:25:38.446Z,4.13
2023-05-19T13:28:06.120Z,5.78
2023-05-19T13:30:35.499Z,5.07
2023-05-19T13:33:03.018Z,4.45
2023-05-19T13:35:30.820Z,5.47
2023-05-19T13:37:57.948Z,6.00
2023-05-19T13:40:26.035Z,3.60
2023-05-19T13:42:52.904Z,6.05
2023-05-19T13:45:19.715Z,7.72
2023-05-19T13:47:46.585Z,4.38
2023-05-19T13:50:13.479Z,5.22
2023-05-19T13:52:40.375Z,6.90
2023-05-19T13:55:07.910Z,3.05
2023-05-19T13:57:35.815Z,5.63
2023-05-19T14:00:04.654Z,5.53
2023-05-19T14:02:32.335Z,4.50
2023-05-19T14:04:59.575Z,5.28
2023-05-19T14:07:27.363Z,3.10
2023-05-19T14:09:54.920Z,3.22
2023-05-19T14:12:30.974Z,3.58
2023-05-19T14:15:08.483Z,2.83
2023-05-19T14:17:36.037Z,3.88
2023-05-19T14:20:03.560Z,3.22
2023-05-19T14:22:30.602Z,4.95
2023-05-19T14:24:57.513Z,2.67
2023-05-19T14:27:24.341Z,5.53
2023-05-19T14:29:51.177Z,4.53
2023-05-19T14:32:18.749Z,2.97
2023-05-19T14:34:45.669Z,5.20
2023-05-19T14:37:12.488Z,2.95
2023-05-19T14:39:39.352Z,3.10
2023-05-19T14:42:06.357Z,3.33
2023-05-19T14:44:33.538Z,4.25
2023-05-19T14:47:02.150Z,6.05
2023-05-19T14:49:29.115Z,4.55
2023-05-19T14:51:56.273Z,3.42
2023-05-19T14:54:23.323Z,2.58
2023-05-19T14:56:50.254Z,2.67
2023-05-19T14:59:17.276Z,4.80
2023-05-19T15:01:44.152Z,6.20
2023-05-19T15:04:11.224Z,4.00
2023-05-19T15:06:39.606Z,4.50
2023-05-19T15:09:06.492Z,6.20
2023-05-19T15:11:33.571Z,4.75
2023-05-19T15:14:00.656Z,5.75
2023-05-19T15:16:27.538Z,4.10
2023-05-19T15:18:54.947Z,2.83
2023-05-19T15:21:21.885Z,4.82
2023-05-19T15:23:49.318Z,2.60
2023-05-19T15:26:16.639Z,4.55
2023-05-19T15:28:43.591Z,7.20
2023-05-19T15:31:10.602Z,5.38
2023-05-19T15:33:37.485Z,5.45
2023-05-19T15:36:04.586Z,5.03
2023-05-19T15:38:36.415Z,6.68
2023-05-19T15:41:08.132Z,2.35
2023-05-19T15:43:35.266Z,2.20
2023-05-19T15:46:02.443Z,5.45
2023-05-19T15:48:29.946Z,4.55
2023-05-19T15:50:58.279Z,3.92
2023-05-19T15:53:25.943Z,4.05
2023-05-19T15:55:52.932Z,5.30
2023-05-19T15:58:19.950Z,3.45
2023-05-19T16:00:47.032Z,3.45
2023-05-19T16:03:13.975Z,3.28
2023-05-19T16:05:42.905Z,3.20
2023-05-19T16:08:09.867Z,4.68
2023-05-19T16:10:36.887Z,2.83
2023-05-19T16:13:03.913Z,6.72
2023-05-19T16:15:30.759Z,5.38
2023-05-19T16:17:57.682Z,3.53
2023-05-19T16:20:27.992Z,2.55
2023-05-19T16:22:55.566Z,2.08
2023-05-19T16:25:22.910Z,4.70
2023-05-19T16:27:50.287Z,3.58
2023-05-19T16:30:17.380Z,2.15
2023-05-19T16:32:44.365Z,2.55
2023-05-19T16:35:11.452Z,4.18
2023-05-19T16:37:38.463Z,5.05
2023-05-19T16:40:05.894Z,3.72
2023-05-19T16:42:33.151Z,13.10
2023-05-19T16:45:00.028Z,3.75
2023-05-19T16:47:26.937Z,6.07
2023-05-19T16:49:54.165Z,3.30
2023-05-19T16:52:21.202Z,2.63
2023-05-19T16:54:48.374Z,3.70
2023-05-19T16:57:15.668Z,6.43
2023-05-19T16:59:42.900Z,2.97
2023-05-19T17:02:10.150Z,7.57
2023-05-19T17:04:37.249Z,4.90
2023-05-19T17:07:04.762Z,2.22
2023-05-19T17:09:31.931Z,3.47
2023-05-19T17:11:58.986Z,4.60
2023-05-19T17:14:26.441Z,1.90
2023-05-19T17:16:53.728Z,2.47
2023-05-19T17:19:21.128Z,3.78
2023-05-19T17:21:48.190Z,5.22
2023-05-19T17:24:15.827Z,5.05
2023-05-19T17:26:43.215Z,4.22
2023-05-19T17:29:10.113Z,4.80
2023-05-19T17:31:37.416Z,2.33
2023-05-19T17:34:04.666Z,3.10
2023-05-19T17:36:31.905Z,3.17
2023-05-19T17:38:58.865Z,4.13
2023-05-19T17:41:26.432Z,4.70
2023-05-19T17:43:53.362Z,4.03
2023-05-19T17:46:20.371Z,3.17
2023-05-19T17:48:47.263Z,3.53
2023-05-19T17:51:14.357Z,2.72
2023-05-19T17:53:41.654Z,2.85
2023-05-19T17:56:11.344Z,3.60
2023-05-19T17:58:38.558Z,2.20
2023-05-19T18:01:05.686Z,4.25
2023-05-19T18:03:33.352Z,4.28
2023-05-19T18:06:01.804Z,4.90
2023-05-19T18:08:30.173Z,2.90
2023-05-19T18:10:57.918Z,2.42
2023-05-19T18:13:26.553Z,3.75
2023-05-19T18:15:53.651Z,3.90
2023-05-19T18:18:21.029Z,4.15
2023-05-19T18:20:48.417Z,3.78
2023-05-19T18:23:15.646Z,3.83
2023-05-19T18:25:50.720Z,4.50
2023-05-19T18:30:44.678Z,3.40
2023-05-19T18:33:12.403Z,3.80
2023-05-19T18:35:39.512Z,2.53
2023-05-19T18:38:06.437Z,3.53
2023-05-19T18:40:33.742Z,4.40
2023-05-19T18:43:01.071Z,3.30
2023-05-19T18:45:28.377Z,5.28
2023-05-19T18:47:55.417Z,2.35
2023-05-19T18:50:22.677Z,3.60
2023-05-19T18:52:49.582Z,3.42
2023-05-19T18:55:16.743Z,3.67
2023-05-19T18:57:44.948Z,2.45
2023-05-19T19:00:13.698Z,2.90
2023-05-19T19:02:41.187Z,4.43
2023-05-19T19:05:09.728Z,3.63
2023-05-19T19:07:44.940Z,3.28
2023-05-19T19:12:39.236Z,2.55
2023-05-19T19:15:07.037Z,4.95
2023-05-19T19:17:34.226Z,6.53
2023-05-19T19:20:01.446Z,4.22
2023-05-19T19:22:28.789Z,2.42
2023-05-19T19:24:59.115Z,2.85
2023-05-19T19:27:31.069Z,5.70
2023-05-19T19:29:58.706Z,3.60
2023-05-19T19:32:26.249Z,4.03
2023-05-19T19:34:53.498Z,5.20
2023-05-19T19:37:20.568Z,5.30
2023-05-19T19:39:47.822Z,4.47
2023-05-19T19:42:14.891Z,5.78
2023-05-19T19:44:41.987Z,6.97
2023-05-19T19:47:09.437Z,2.53
2023-05-19T19:49:37.634Z,8.07
2023-05-19T19:52:04.856Z,6.50
2023-05-19T19:54:31.830Z,6.78
2023-05-19T19:56:58.952Z,3.25
2023-05-19T19:59:27.004Z,3.70
2023-05-19T20:01:54.047Z,4.82
2023-05-19T20:04:21.496Z,4.20
2023-05-19T20:06:49.771Z,5.00
2023-05-19T20:09:17.207Z,4.82
2023-05-19T20:11:44.514Z,5.13
2023-05-19T20:14:11.924Z,5.10
2023-05-19T20:16:40.744Z,5.32
2023-05-19T20:19:09.400Z,7.43
2023-05-19T20:21:36.840Z,6.45
2023-05-19T20:24:04.569Z,7.00
2023-05-19T20:26:32.124Z,7.03
2023-05-19T20:28:59.424Z,8.60
2023-05-19T20:31:26.809Z,5.68
2023-05-19T20:33:54.354Z,8.23
2023-05-19T20:36:21.724Z,4.10
2023-05-19T20:38:48.729Z,2.97
2023-05-19T20:41:15.702Z,4.10
2023-05-19T20:43:42.631Z,6.07
2023-05-19T20:46:09.886Z,4.78
2023-05-19T20:48:37.045Z,3.15
2023-05-19T20:51:04.089Z,5.68
2023-05-19T20:53:31.094Z,6.30
2023-05-19T20:55:58.118Z,3.33
2023-05-19T20:58:30.083Z,4.88
2023-05-19T21:00:58.184Z,3.88
2023-05-19T21:03:27.261Z,5.15
2023-05-19T21:05:55.209Z,4.18
2023-05-19T21:08:22.725Z,5.97
2023-05-19T21:10:49.729Z,3.97
2023-05-19T21:13:18.282Z,8.13
2023-05-19T21:15:45.229Z,3.00
2023-05-19T21:18:12.642Z,3.63
2023-05-19T21:20:40.030Z,3.85
2023-05-19T21:23:06.977Z,2.95
2023-05-19T21:25:34.219Z,6.40
2023-05-19T21:28:01.695Z,3.63
2023-05-19T21:30:29.017Z,4.43
2023-05-19T21:32:55.992Z,4.03
2023-05-19T21:35:23.154Z,5.72
2023-05-19T21:37:50.110Z,4.88
2023-05-19T21:40:17.099Z,5.65
2023-05-19T21:42:44.073Z,3.58
2023-05-19T21:45:11.520Z,7.82
2023-05-19T21:47:38.479Z,5.30
2023-05-19T21:50:06.429Z,6.97
2023-05-19T21:52:33.313Z,6.53
2023-05-19T21:55:00.344Z,4.70
2023-05-19T21:57:27.485Z,4.22
2023-05-19T21:59:54.829Z,4.43
2023-05-19T22:02:21.718Z,5.38
2023-05-19T22:04:48.587Z,4.68
2023-05-19T22:07:15.470Z,5.63
2023-05-19T22:09:43.640Z,10.23
2023-05-19T22:12:10.982Z,10.82
2023-05-19T22:14:38.027Z,4.78
2023-05-19T22:17:05.006Z,6.78
2023-05-19T22:19:32.021Z,5.90
2023-05-19T22:22:09.697Z,6.85
2023-05-19T22:24:40.519Z,6.65
2023-05-19T22:27:08.279Z,7.25
2023-05-19T22:29:37.490Z,5.22
2023-05-19T22:32:06.642Z,3.63
2023-05-19T22:34:33.574Z,6.18
2023-05-19T22:37:00.497Z,4.85
2023-05-19T22:39:27.356Z,5.32
2023-05-19T22:41:54.181Z,6.20
2023-05-19T22:44:21.366Z,5.90
2023-05-19T22:46:48.224Z,5.25
2023-05-19T22:49:15.124Z,3.30
2023-05-19T22:51:42.210Z,5.55
2023-05-19T22:54:10.488Z,10.68
2023-05-19T22:56:37.337Z,5.63
2023-05-19T22:59:04.106Z,4.55
2023-05-19T23:01:31.067Z,4.28
2023-05-19T23:03:58.003Z,4.03
2023-05-19T23:06:25.079Z,3.92
2023-05-19T23:09:03.463Z,7.53
2023-05-19T23:11:30.744Z,6.63
2023-05-19T23:13:57.544Z,5.97
2023-05-19T23:16:24.410Z,5.25
2023-05-19T23:18:51.384Z,5.80
2023-05-19T23:21:18.373Z,6.03
2023-05-19T23:23:45.312Z,4.40
2023-05-19T23:26:14.848Z,6.45
2023-05-19T23:28:42.686Z,4.03
2023-05-19T23:31:09.832Z,6.60
2023-05-19T23:33:36.715Z,5.03
2023-05-19T23:36:10.691Z,9.82
2023-05-19T23:38:37.779Z,5.10
2023-05-19T23:41:05.158Z,6.28
2023-05-19T23:43:35.019Z,4.30
2023-05-19T23:46:01.957Z,4.40
2023-05-19T23:48:29.472Z,4.78
2023-05-19T23:50:57.560Z,5.88
2023-05-19T23:53:25.051Z,10.07
2023-05-19T23:55:51.882Z,8.00
2023-05-19T23:58:19.105Z,6.32
